sensor_id;sensor_type;location;lat;lon;timestamp;P1;durP1;ratioP1;P2;durP2;ratioP2
38725;SDS011;24474;48.906;8.808;2023-02-22T00:00:57;9.30;;;4.60;;
38725;SDS011;24474;48.906;8.808;2023-02-22T00:03:46;8.20;;;4.20;;
38725;SDS011;24474;48.906;8.808;2023-02-22T00:06:15;8.03;;;3.73;;
38725;SDS011;24474;48.906;8.808;2023-02-22T00:08:42;8.98;;;4.70;;
38725;SDS011;24474;48.906;8.808;2023-02-22T00:11:11;9.40;;;4.78;;
38725;SDS011;24474;48.906;8.808;2023-02-22T00:13:56;8.55;;;4.72;;
38725;SDS011;24474;48.906;8.808;2023-02-22T00:16:22;11.45;;;5.35;;
38725;SDS011;24474;48.906;8.808;2023-02-22T00:18:50;9.38;;;4.65;;
38725;SDS011;24474;48.906;8.808;2023-02-22T00:21:17;8.30;;;4.95;;
38725;SDS011;24474;48.906;8.808;2023-02-22T00:23:44;9.85;;;5.07;;
38725;SDS011;24474;48.906;8.808;2023-02-22T00:26:12;8.60;;;4.78;;
38725;SDS011;24474;48.906;8.808;2023-02-22T00:28:42;9.27;;;5.13;;
38725;SDS011;24474;48.906;8.808;2023-02-22T00:31:09;10.10;;;5.07;;
38725;SDS011;24474;48.906;8.808;2023-02-22T00:33:37;10.85;;;4.97;;
38725;SDS011;24474;48.906;8.808;2023-02-22T00:36:03;10.00;;;5.05;;
38725;SDS011;24474;48.906;8.808;2023-02-22T00:38:29;12.68;;;4.78;;
38725;SDS011;24474;48.906;8.808;2023-02-22T00:40:55;10.13;;;4.70;;
38725;SDS011;24474;48.906;8.808;2023-02-22T00:43:20;12.65;;;5.10;;
38725;SDS011;24474;48.906;8.808;2023-02-22T00:45:46;10.65;;;4.75;;
38725;SDS011;24474;48.906;8.808;2023-02-22T00:48:13;8.10;;;4.65;;
38725;SDS011;24474;48.906;8.808;2023-02-22T00:50:41;8.98;;;4.40;;
38725;SDS011;24474;48.906;8.808;2023-02-22T00:53:07;9.35;;;4.90;;
38725;SDS011;24474;48.906;8.808;2023-02-22T00:55:42;10.52;;;5.18;;
38725;SDS011;24474;48.906;8.808;2023-02-22T00:58:07;9.65;;;5.13;;
38725;SDS011;24474;48.906;8.808;2023-02-22T01:00:34;9.13;;;4.80;;
38725;SDS011;24474;48.906;8.808;2023-02-22T01:03:03;10.20;;;4.70;;
38725;SDS011;24474;48.906;8.808;2023-02-22T01:05:29;9.43;;;5.03;;
38725;SDS011;24474;48.906;8.808;2023-02-22T01:07:56;9.63;;;4.57;;
38725;SDS011;24474;48.906;8.808;2023-02-22T01:10:25;9.93;;;4.72;;
38725;SDS011;24474;48.906;8.808;2023-02-22T01:15:23;8.35;;;4.30;;
38725;SDS011;24474;48.906;8.808;2023-02-22T01:17:54;9.60;;;4.25;;
38725;SDS011;24474;48.906;8.808;2023-02-22T01:20:21;9.77;;;4.15;;
38725;SDS011;24474;48.906;8.808;2023-02-22T01:22:49;10.18;;;4.38;;
38725;SDS011;24474;48.906;8.808;2023-02-22T01:25:19;8.03;;;4.40;;
38725;SDS011;24474;48.906;8.808;2023-02-22T01:27:48;11.98;;;4.50;;
38725;SDS011;24474;48.906;8.808;2023-02-22T01:30:17;12.00;;;4.68;;
38725;SDS011;24474;48.906;8.808;2023-02-22T01:32:50;10.20;;;4.57;;
38725;SDS011;24474;48.906;8.808;2023-02-22T01:35:22;12.23;;;4.35;;
38725;SDS011;24474;48.906;8.808;2023-02-22T01:37:51;10.70;;;4.75;;
38725;SDS011;24474;48.906;8.808;2023-02-22T01:40:19;9.60;;;4.63;;
38725;SDS011;24474;48.906;8.808;2023-02-22T01:42:50;11.93;;;4.75;;
38725;SDS011;24474;48.906;8.808;2023-02-22T01:45:54;9.20;;;4.43;;
38725;SDS011;24474;48.906;8.808;2023-02-22T01:50:56;9.38;;;4.47;;
38725;SDS011;24474;48.906;8.808;2023-02-22T01:53:47;9.88;;;3.95;;
38725;SDS011;24474;48.906;8.808;2023-02-22T01:56:39;7.88;;;3.95;;
38725;SDS011;24474;48.906;8.808;2023-02-22T01:59:16;9.40;;;4.03;;
38725;SDS011;24474;48.906;8.808;2023-02-22T02:01:43;11.27;;;4.30;;
38725;SDS011;24474;48.906;8.808;2023-02-22T02:04:12;6.65;;;3.38;;
38725;SDS011;24474;48.906;8.808;2023-02-22T02:06:41;8.57;;;4.28;;
38725;SDS011;24474;48.906;8.808;2023-02-22T02:11:56;8.13;;;3.90;;
38725;SDS011;24474;48.906;8.808;2023-02-22T02:14:25;8.55;;;4.30;;
38725;SDS011;24474;48.906;8.808;2023-02-22T02:16:56;7.45;;;4.20;;
38725;SDS011;24474;48.906;8.808;2023-02-22T02:40:55;8.13;;;4.25;;
38725;SDS011;24474;48.906;8.808;2023-02-22T02:49:18;10.07;;;4.40;;
38725;SDS011;24474;48.906;8.808;2023-02-22T02:54:26;7.75;;;3.75;;
38725;SDS011;24474;48.906;8.808;2023-02-22T02:56:54;10.63;;;4.63;;
38725;SDS011;24474;48.906;8.808;2023-02-22T02:59:23;6.43;;;3.58;;
38725;SDS011;24474;48.906;8.808;2023-02-22T03:08:17;7.25;;;4.03;;
38725;SDS011;24474;48.906;8.808;2023-02-22T03:11:04;8.32;;;4.03;;
38725;SDS011;24474;48.906;8.808;2023-02-22T03:16:43;7.13;;;3.60;;
38725;SDS011;24474;48.906;8.808;2023-02-22T03:19:26;6.75;;;3.85;;
38725;SDS011;24474;48.906;8.808;2023-02-22T03:22:11;10.45;;;3.88;;
38725;SDS011;24474;48.906;8.808;2023-02-22T03:27:48;6.57;;;3.55;;
38725;SDS011;24474;48.906;8.808;2023-02-22T03:30:30;6.72;;;3.70;;
38725;SDS011;24474;48.906;8.808;2023-02-22T03:33:05;8.90;;;4.00;;
38725;SDS011;24474;48.906;8.808;2023-02-22T03:35:40;8.50;;;4.20;;
38725;SDS011;24474;48.906;8.808;2023-02-22T03:38:21;8.60;;;4.07;;
38725;SDS011;24474;48.906;8.808;2023-02-22T03:40:51;9.10;;;4.55;;
38725;SDS011;24474;48.906;8.808;2023-02-22T03:43:24;8.10;;;4.45;;
38725;SDS011;24474;48.906;8.808;2023-02-22T03:46:03;6.75;;;3.78;;
38725;SDS011;24474;48.906;8.808;2023-02-22T03:51:32;9.25;;;4.85;;
38725;SDS011;24474;48.906;8.808;2023-02-22T03:54:01;13.15;;;6.20;;
38725;SDS011;24474;48.906;8.808;2023-02-22T03:56:29;11.80;;;5.85;;
38725;SDS011;24474;48.906;8.808;2023-02-22T03:59:04;12.35;;;6.25;;
38725;SDS011;24474;48.906;8.808;2023-02-22T04:01:33;12.23;;;6.28;;
38725;SDS011;24474;48.906;8.808;2023-02-22T04:04:02;13.05;;;6.72;;
38725;SDS011;24474;48.906;8.808;2023-02-22T04:06:29;11.77;;;6.32;;
38725;SDS011;24474;48.906;8.808;2023-02-22T04:08:57;10.10;;;6.18;;
38725;SDS011;24474;48.906;8.808;2023-02-22T04:11:24;11.25;;;5.95;;
38725;SDS011;24474;48.906;8.808;2023-02-22T04:13:51;9.75;;;6.00;;
38725;SDS011;24474;48.906;8.808;2023-02-22T04:16:19;12.30;;;6.15;;
38725;SDS011;24474;48.906;8.808;2023-02-22T04:18:46;10.63;;;6.15;;
38725;SDS011;24474;48.906;8.808;2023-02-22T04:21:12;12.25;;;6.60;;
38725;SDS011;24474;48.906;8.808;2023-02-22T04:23:39;10.95;;;5.18;;
38725;SDS011;24474;48.906;8.808;2023-02-22T04:26:05;10.75;;;5.70;;
38725;SDS011;24474;48.906;8.808;2023-02-22T04:28:30;11.35;;;5.95;;
38725;SDS011;24474;48.906;8.808;2023-02-22T04:30:56;11.48;;;6.20;;
38725;SDS011;24474;48.906;8.808;2023-02-22T04:33:22;11.75;;;6.38;;
38725;SDS011;24474;48.906;8.808;2023-02-22T04:35:50;12.48;;;6.57;;
38725;SDS011;24474;48.906;8.808;2023-02-22T04:38:16;9.00;;;5.93;;
38725;SDS011;24474;48.906;8.808;2023-02-22T04:40:42;11.18;;;6.10;;
38725;SDS011;24474;48.906;8.808;2023-02-22T04:43:09;9.30;;;5.50;;
38725;SDS011;24474;48.906;8.808;2023-02-22T04:45:34;9.10;;;5.55;;
38725;SDS011;24474;48.906;8.808;2023-02-22T04:48:01;7.80;;;4.80;;
38725;SDS011;24474;48.906;8.808;2023-02-22T04:50:27;10.35;;;4.90;;
38725;SDS011;24474;48.906;8.808;2023-02-22T04:52:54;8.45;;;5.28;;
38725;SDS011;24474;48.906;8.808;2023-02-22T04:55:20;10.50;;;5.40;;
38725;SDS011;24474;48.906;8.808;2023-02-22T04:57:47;8.93;;;5.38;;
38725;SDS011;24474;48.906;8.808;2023-02-22T05:00:17;11.93;;;6.25;;
38725;SDS011;24474;48.906;8.808;2023-02-22T05:02:46;11.52;;;6.03;;
38725;SDS011;24474;48.906;8.808;2023-02-22T05:05:16;13.18;;;6.43;;
38725;SDS011;24474;48.906;8.808;2023-02-22T05:07:45;11.00;;;6.10;;
38725;SDS011;24474;48.906;8.808;2023-02-22T05:10:13;10.48;;;6.32;;
38725;SDS011;24474;48.906;8.808;2023-02-22T05:12:39;10.57;;;6.32;;
38725;SDS011;24474;48.906;8.808;2023-02-22T05:15:06;11.02;;;6.82;;
38725;SDS011;24474;48.906;8.808;2023-02-22T05:17:33;11.77;;;6.78;;
38725;SDS011;24474;48.906;8.808;2023-02-22T05:20:00;14.65;;;9.27;;
38725;SDS011;24474;48.906;8.808;2023-02-22T05:22:29;15.90;;;10.90;;
38725;SDS011;24474;48.906;8.808;2023-02-22T05:24:55;13.73;;;10.88;;
38725;SDS011;24474;48.906;8.808;2023-02-22T05:27:22;13.77;;;10.93;;
38725;SDS011;24474;48.906;8.808;2023-02-22T05:29:49;14.13;;;10.52;;
38725;SDS011;24474;48.906;8.808;2023-02-22T05:32:15;15.73;;;10.13;;
38725;SDS011;24474;48.906;8.808;2023-02-22T05:34:42;15.85;;;11.27;;
38725;SDS011;24474;48.906;8.808;2023-02-22T05:37:07;19.95;;;13.00;;
38725;SDS011;24474;48.906;8.808;2023-02-22T05:39:34;18.95;;;12.27;;
38725;SDS011;24474;48.906;8.808;2023-02-22T05:42:01;15.27;;;9.30;;
38725;SDS011;24474;48.906;8.808;2023-02-22T05:44:26;13.05;;;8.20;;
38725;SDS011;24474;48.906;8.808;2023-02-22T05:46:52;14.05;;;7.32;;
38725;SDS011;24474;48.906;8.808;2023-02-22T05:49:17;14.27;;;6.93;;
38725;SDS011;24474;48.906;8.808;2023-02-22T05:51:46;12.85;;;8.43;;
38725;SDS011;24474;48.906;8.808;2023-02-22T05:54:12;12.77;;;8.45;;
38725;SDS011;24474;48.906;8.808;2023-02-22T05:56:39;14.27;;;7.65;;
38725;SDS011;24474;48.906;8.808;2023-02-22T05:59:05;13.65;;;7.50;;
38725;SDS011;24474;48.906;8.808;2023-02-22T06:01:31;15.63;;;7.93;;
38725;SDS011;24474;48.906;8.808;2023-02-22T06:03:58;10.90;;;7.47;;
38725;SDS011;24474;48.906;8.808;2023-02-22T06:06:23;14.85;;;7.78;;
38725;SDS011;24474;48.906;8.808;2023-02-22T06:08:49;14.18;;;8.20;;
38725;SDS011;24474;48.906;8.808;2023-02-22T06:11:15;14.80;;;8.57;;
38725;SDS011;24474;48.906;8.808;2023-02-22T06:13:42;15.15;;;9.80;;
38725;SDS011;24474;48.906;8.808;2023-02-22T06:16:14;20.20;;;13.82;;
38725;SDS011;24474;48.906;8.808;2023-02-22T06:18:41;20.55;;;15.00;;
38725;SDS011;24474;48.906;8.808;2023-02-22T06:21:08;17.20;;;12.23;;
38725;SDS011;24474;48.906;8.808;2023-02-22T06:23:34;18.90;;;12.10;;
38725;SDS011;24474;48.906;8.808;2023-02-22T06:25:59;15.93;;;10.52;;
38725;SDS011;24474;48.906;8.808;2023-02-22T06:28:25;14.77;;;10.48;;
38725;SDS011;24474;48.906;8.808;2023-02-22T06:30:50;14.20;;;9.35;;
38725;SDS011;24474;48.906;8.808;2023-02-22T06:33:16;14.82;;;9.48;;
38725;SDS011;24474;48.906;8.808;2023-02-22T06:35:41;13.07;;;8.63;;
38725;SDS011;24474;48.906;8.808;2023-02-22T06:38:07;13.27;;;8.10;;
38725;SDS011;24474;48.906;8.808;2023-02-22T06:40:33;10.70;;;7.22;;
38725;SDS011;24474;48.906;8.808;2023-02-22T06:42:58;9.30;;;5.82;;
38725;SDS011;24474;48.906;8.808;2023-02-22T06:45:24;10.73;;;5.70;;
38725;SDS011;24474;48.906;8.808;2023-02-22T06:47:50;10.45;;;6.63;;
38725;SDS011;24474;48.906;8.808;2023-02-22T06:50:24;13.60;;;6.43;;
38725;SDS011;24474;48.906;8.808;2023-02-22T06:52:53;12.25;;;6.50;;
38725;SDS011;24474;48.906;8.808;2023-02-22T06:55:23;10.75;;;6.47;;
38725;SDS011;24474;48.906;8.808;2023-02-22T06:57:50;12.90;;;7.35;;
38725;SDS011;24474;48.906;8.808;2023-02-22T07:00:17;12.52;;;6.85;;
38725;SDS011;24474;48.906;8.808;2023-02-22T07:02:44;11.70;;;6.47;;
38725;SDS011;24474;48.906;8.808;2023-02-22T07:05:12;12.95;;;6.10;;
38725;SDS011;24474;48.906;8.808;2023-02-22T07:07:40;10.32;;;6.22;;
38725;SDS011;24474;48.906;8.808;2023-02-22T07:10:06;10.88;;;5.95;;
38725;SDS011;24474;48.906;8.808;2023-02-22T07:12:33;10.57;;;5.82;;
38725;SDS011;24474;48.906;8.808;2023-02-22T07:14:59;11.13;;;6.32;;
38725;SDS011;24474;48.906;8.808;2023-02-22T07:17:25;12.18;;;6.50;;
38725;SDS011;24474;48.906;8.808;2023-02-22T07:19:51;11.05;;;6.00;;
38725;SDS011;24474;48.906;8.808;2023-02-22T07:22:16;13.88;;;6.30;;
38725;SDS011;24474;48.906;8.808;2023-02-22T07:24:42;11.80;;;6.07;;
38725;SDS011;24474;48.906;8.808;2023-02-22T07:27:07;11.60;;;6.35;;
38725;SDS011;24474;48.906;8.808;2023-02-22T07:29:33;13.43;;;7.07;;
38725;SDS011;24474;48.906;8.808;2023-02-22T07:32:00;12.25;;;6.75;;
38725;SDS011;24474;48.906;8.808;2023-02-22T07:34:26;9.10;;;6.05;;
38725;SDS011;24474;48.906;8.808;2023-02-22T07:36:52;12.95;;;5.95;;
38725;SDS011;24474;48.906;8.808;2023-02-22T07:39:17;9.80;;;5.70;;
38725;SDS011;24474;48.906;8.808;2023-02-22T07:41:43;20.23;;;9.45;;
38725;SDS011;24474;48.906;8.808;2023-02-22T07:44:09;24.67;;;11.05;;
38725;SDS011;24474;48.906;8.808;2023-02-22T07:46:34;30.17;;;14.23;;
38725;SDS011;24474;48.906;8.808;2023-02-22T07:49:00;34.95;;;16.83;;
38725;SDS011;24474;48.906;8.808;2023-02-22T07:51:25;27.05;;;14.27;;
38725;SDS011;24474;48.906;8.808;2023-02-22T07:53:51;27.17;;;14.20;;
38725;SDS011;24474;48.906;8.808;2023-02-22T07:56:17;22.98;;;12.57;;
38725;SDS011;24474;48.906;8.808;2023-02-22T07:58:42;18.00;;;11.73;;
38725;SDS011;24474;48.906;8.808;2023-02-22T08:01:08;16.10;;;10.38;;
38725;SDS011;24474;48.906;8.808;2023-02-22T08:03:34;16.20;;;10.25;;
38725;SDS011;24474;48.906;8.808;2023-02-22T08:06:02;22.98;;;10.25;;
38725;SDS011;24474;48.906;8.808;2023-02-22T08:08:30;19.05;;;9.88;;
38725;SDS011;24474;48.906;8.808;2023-02-22T08:10:56;17.55;;;9.68;;
38725;SDS011;24474;48.906;8.808;2023-02-22T08:13:22;17.55;;;8.95;;
38725;SDS011;24474;48.906;8.808;2023-02-22T08:15:49;16.80;;;9.25;;
38725;SDS011;24474;48.906;8.808;2023-02-22T08:18:17;16.40;;;8.90;;
38725;SDS011;24474;48.906;8.808;2023-02-22T08:20:46;16.50;;;9.90;;
38725;SDS011;24474;48.906;8.808;2023-02-22T08:23:14;16.35;;;9.88;;
38725;SDS011;24474;48.906;8.808;2023-02-22T08:25:40;16.42;;;10.40;;
38725;SDS011;24474;48.906;8.808;2023-02-22T08:28:08;17.98;;;11.02;;
38725;SDS011;24474;48.906;8.808;2023-02-22T08:30:36;16.45;;;10.93;;
38725;SDS011;24474;48.906;8.808;2023-02-22T08:33:04;18.20;;;11.02;;
38725;SDS011;24474;48.906;8.808;2023-02-22T08:35:32;15.05;;;10.98;;
38725;SDS011;24474;48.906;8.808;2023-02-22T08:38:00;17.02;;;11.07;;
38725;SDS011;24474;48.906;8.808;2023-02-22T08:40:30;16.98;;;11.45;;
38725;SDS011;24474;48.906;8.808;2023-02-22T08:43:01;18.30;;;12.02;;
38725;SDS011;24474;48.906;8.808;2023-02-22T08:45:29;18.45;;;12.93;;
38725;SDS011;24474;48.906;8.808;2023-02-22T08:47:57;17.42;;;10.18;;
38725;SDS011;24474;48.906;8.808;2023-02-22T08:50:25;14.57;;;8.80;;
38725;SDS011;24474;48.906;8.808;2023-02-22T08:52:53;9.05;;;6.22;;
38725;SDS011;24474;48.906;8.808;2023-02-22T08:55:24;10.02;;;6.65;;
38725;SDS011;24474;48.906;8.808;2023-02-22T08:57:52;11.57;;;6.68;;
38725;SDS011;24474;48.906;8.808;2023-02-22T09:00:18;9.65;;;6.63;;
38725;SDS011;24474;48.906;8.808;2023-02-22T09:02:46;13.32;;;6.75;;
38725;SDS011;24474;48.906;8.808;2023-02-22T09:05:11;11.38;;;6.38;;
38725;SDS011;24474;48.906;8.808;2023-02-22T09:07:40;12.27;;;6.55;;
38725;SDS011;24474;48.906;8.808;2023-02-22T09:10:06;10.70;;;6.70;;
38725;SDS011;24474;48.906;8.808;2023-02-22T09:12:36;11.02;;;6.60;;
38725;SDS011;24474;48.906;8.808;2023-02-22T09:15:02;13.15;;;7.28;;
38725;SDS011;24474;48.906;8.808;2023-02-22T09:17:28;11.00;;;7.63;;
38725;SDS011;24474;48.906;8.808;2023-02-22T09:19:55;12.13;;;7.50;;
38725;SDS011;24474;48.906;8.808;2023-02-22T09:22:22;12.88;;;7.50;;
38725;SDS011;24474;48.906;8.808;2023-02-22T09:24:50;13.15;;;6.75;;
38725;SDS011;24474;48.906;8.808;2023-02-22T09:27:17;9.35;;;6.03;;
38725;SDS011;24474;48.906;8.808;2023-02-22T09:29:46;11.45;;;6.80;;
38725;SDS011;24474;48.906;8.808;2023-02-22T09:32:14;9.88;;;7.00;;
38725;SDS011;24474;48.906;8.808;2023-02-22T09:34:43;9.03;;;6.23;;
38725;SDS011;24474;48.906;8.808;2023-02-22T09:37:12;8.70;;;5.85;;
38725;SDS011;24474;48.906;8.808;2023-02-22T09:39:37;8.15;;;5.38;;
38725;SDS011;24474;48.906;8.808;2023-02-22T09:45:07;9.55;;;5.25;;
38725;SDS011;24474;48.906;8.808;2023-02-22T09:50:11;8.13;;;5.30;;
38725;SDS011;24474;48.906;8.808;2023-02-22T09:56:03;13.52;;;5.80;;
38725;SDS011;24474;48.906;8.808;2023-02-22T09:59:09;8.43;;;5.65;;
38725;SDS011;24474;48.906;8.808;2023-02-22T10:01:39;9.52;;;6.47;;
38725;SDS011;24474;48.906;8.808;2023-02-22T10:06:40;9.85;;;6.60;;
38725;SDS011;24474;48.906;8.808;2023-02-22T10:09:24;11.32;;;6.80;;
38725;SDS011;24474;48.906;8.808;2023-02-22T10:12:09;9.67;;;6.63;;
38725;SDS011;24474;48.906;8.808;2023-02-22T10:14:45;12.77;;;7.50;;
38725;SDS011;24474;48.906;8.808;2023-02-22T10:26:36;13.25;;;7.35;;
38725;SDS011;24474;48.906;8.808;2023-02-22T10:31:47;11.98;;;7.60;;
38725;SDS011;24474;48.906;8.808;2023-02-22T10:34:21;10.35;;;7.25;;
38725;SDS011;24474;48.906;8.808;2023-02-22T10:39:30;12.43;;;8.23;;
38725;SDS011;24474;48.906;8.808;2023-02-22T10:42:00;13.65;;;8.68;;
38725;SDS011;24474;48.906;8.808;2023-02-22T10:44:35;16.15;;;9.45;;
38725;SDS011;24474;48.906;8.808;2023-02-22T10:47:07;12.65;;;9.38;;
38725;SDS011;24474;48.906;8.808;2023-02-22T10:49:37;13.32;;;9.23;;
38725;SDS011;24474;48.906;8.808;2023-02-22T10:52:12;13.55;;;9.75;;
38725;SDS011;24474;48.906;8.808;2023-02-22T10:54:46;13.57;;;9.40;;
38725;SDS011;24474;48.906;8.808;2023-02-22T10:57:15;12.88;;;8.60;;
38725;SDS011;24474;48.906;8.808;2023-02-22T10:59:50;13.60;;;9.98;;
38725;SDS011;24474;48.906;8.808;2023-02-22T11:02:23;15.50;;;10.13;;
38725;SDS011;24474;48.906;8.808;2023-02-22T11:04:56;14.40;;;10.52;;
38725;SDS011;24474;48.906;8.808;2023-02-22T11:07:32;13.38;;;10.35;;
38725;SDS011;24474;48.906;8.808;2023-02-22T11:10:04;16.60;;;10.32;;
38725;SDS011;24474;48.906;8.808;2023-02-22T11:12:35;16.25;;;10.70;;
38725;SDS011;24474;48.906;8.808;2023-02-22T11:17:53;16.42;;;11.35;;
38725;SDS011;24474;48.906;8.808;2023-02-22T11:20:28;15.93;;;10.70;;
38725;SDS011;24474;48.906;8.808;2023-02-22T11:23:00;16.52;;;11.20;;
38725;SDS011;24474;48.906;8.808;2023-02-22T11:25:29;13.52;;;10.07;;
38725;SDS011;24474;48.906;8.808;2023-02-22T11:28:07;15.15;;;10.27;;
38725;SDS011;24474;48.906;8.808;2023-02-22T11:30:56;14.57;;;9.95;;
38725;SDS011;24474;48.906;8.808;2023-02-22T11:33:33;14.00;;;9.00;;
38725;SDS011;24474;48.906;8.808;2023-02-22T11:36:00;14.15;;;9.00;;
38725;SDS011;24474;48.906;8.808;2023-02-22T11:38:34;14.23;;;8.80;;
38725;SDS011;24474;48.906;8.808;2023-02-22T11:43:52;11.55;;;8.38;;
38725;SDS011;24474;48.906;8.808;2023-02-22T11:46:24;10.52;;;8.30;;
38725;SDS011;24474;48.906;8.808;2023-02-22T11:54:33;12.82;;;8.85;;
38725;SDS011;24474;48.906;8.808;2023-02-22T12:06:30;14.25;;;8.77;;
38725;SDS011;24474;48.906;8.808;2023-02-22T12:15:01;10.98;;;8.07;;
38725;SDS011;24474;48.906;8.808;2023-02-22T12:20:25;12.32;;;8.50;;
38725;SDS011;24474;48.906;8.808;2023-02-22T12:23:04;13.77;;;8.65;;
38725;SDS011;24474;48.906;8.808;2023-02-22T12:26:06;12.88;;;8.85;;
38725;SDS011;24474;48.906;8.808;2023-02-22T12:28:33;12.05;;;8.63;;
38725;SDS011;24474;48.906;8.808;2023-02-22T12:31:36;13.15;;;8.80;;
38725;SDS011;24474;48.906;8.808;2023-02-22T12:40:09;11.32;;;8.02;;
38725;SDS011;24474;48.906;8.808;2023-02-22T12:45:50;13.10;;;8.13;;
38725;SDS011;24474;48.906;8.808;2023-02-22T12:49:18;11.32;;;7.93;;
38725;SDS011;24474;48.906;8.808;2023-02-22T12:51:43;13.75;;;8.27;;
38725;SDS011;24474;48.906;8.808;2023-02-22T13:00:17;11.45;;;8.02;;
38725;SDS011;24474;48.906;8.808;2023-02-22T13:06:34;13.43;;;8.02;;
38725;SDS011;24474;48.906;8.808;2023-02-22T13:14:58;12.35;;;7.63;;
38725;SDS011;24474;48.906;8.808;2023-02-22T13:22:46;12.27;;;7.57;;
38725;SDS011;24474;48.906;8.808;2023-02-22T13:27:58;12.85;;;7.40;;
38725;SDS011;24474;48.906;8.808;2023-02-22T13:30:37;9.85;;;7.10;;
38725;SDS011;24474;48.906;8.808;2023-02-22T13:33:09;13.75;;;8.13;;
38725;SDS011;24474;48.906;8.808;2023-02-22T13:53:23;13.45;;;7.28;;
38725;SDS011;24474;48.906;8.808;2023-02-22T13:55:55;10.65;;;7.40;;
38725;SDS011;24474;48.906;8.808;2023-02-22T13:58:24;10.32;;;7.20;;
38725;SDS011;24474;48.906;8.808;2023-02-22T14:00:56;14.18;;;7.82;;
38725;SDS011;24474;48.906;8.808;2023-02-22T14:03:39;13.07;;;7.00;;
38725;SDS011;24474;48.906;8.808;2023-02-22T14:06:05;11.77;;;6.75;;
38725;SDS011;24474;48.906;8.808;2023-02-22T14:08:54;11.85;;;7.00;;
38725;SDS011;24474;48.906;8.808;2023-02-22T14:16:32;10.13;;;6.65;;
38725;SDS011;24474;48.906;8.808;2023-02-22T14:19:20;13.40;;;7.03;;
38725;SDS011;24474;48.906;8.808;2023-02-22T14:21:59;12.15;;;6.80;;
38725;SDS011;24474;48.906;8.808;2023-02-22T14:27:25;12.02;;;7.20;;
38725;SDS011;24474;48.906;8.808;2023-02-22T14:30:05;12.23;;;7.35;;
38725;SDS011;24474;48.906;8.808;2023-02-22T14:32:33;14.70;;;7.97;;
38725;SDS011;24474;48.906;8.808;2023-02-22T14:37:32;14.40;;;7.93;;
38725;SDS011;24474;48.906;8.808;2023-02-22T14:40:16;14.75;;;8.60;;
38725;SDS011;24474;48.906;8.808;2023-02-22T14:42:56;14.07;;;8.70;;
38725;SDS011;24474;48.906;8.808;2023-02-22T14:45:35;14.10;;;8.20;;
38725;SDS011;24474;48.906;8.808;2023-02-22T14:51:20;15.30;;;8.98;;
38725;SDS011;24474;48.906;8.808;2023-02-22T14:54:01;14.98;;;9.40;;
38725;SDS011;24474;48.906;8.808;2023-02-22T14:56:38;13.63;;;9.25;;
38725;SDS011;24474;48.906;8.808;2023-02-22T14:59:24;13.25;;;8.55;;
38725;SDS011;24474;48.906;8.808;2023-02-22T15:02:05;12.48;;;8.20;;
38725;SDS011;24474;48.906;8.808;2023-02-22T15:04:35;15.10;;;9.45;;
38725;SDS011;24474;48.906;8.808;2023-02-22T15:07:25;13.77;;;8.98;;
38725;SDS011;24474;48.906;8.808;2023-02-22T15:10:20;12.35;;;7.97;;
38725;SDS011;24474;48.906;8.808;2023-02-22T15:12:49;14.55;;;9.20;;
38725;SDS011;24474;48.906;8.808;2023-02-22T15:15:17;14.68;;;8.90;;
38725;SDS011;24474;48.906;8.808;2023-02-22T15:17:55;14.57;;;8.98;;
38725;SDS011;24474;48.906;8.808;2023-02-22T15:20:23;11.90;;;8.80;;
38725;SDS011;24474;48.906;8.808;2023-02-22T15:22:56;13.00;;;9.48;;
38725;SDS011;24474;48.906;8.808;2023-02-22T15:25:25;11.50;;;8.85;;
38725;SDS011;24474;48.906;8.808;2023-02-22T15:27:59;11.18;;;8.73;;
38725;SDS011;24474;48.906;8.808;2023-02-22T15:30:31;13.48;;;9.00;;
38725;SDS011;24474;48.906;8.808;2023-02-22T15:33:09;17.02;;;10.10;;
38725;SDS011;24474;48.906;8.808;2023-02-22T15:35:41;12.30;;;9.27;;
38725;SDS011;24474;48.906;8.808;2023-02-22T15:40:36;13.43;;;9.30;;
38725;SDS011;24474;48.906;8.808;2023-02-22T15:43:19;17.83;;;9.43;;
38725;SDS011;24474;48.906;8.808;2023-02-22T15:48:29;16.17;;;10.00;;
38725;SDS011;24474;48.906;8.808;2023-02-22T15:51:06;14.05;;;9.20;;
38725;SDS011;24474;48.906;8.808;2023-02-22T15:53:40;15.52;;;8.82;;
38725;SDS011;24474;48.906;8.808;2023-02-22T15:56:13;13.27;;;9.55;;
38725;SDS011;24474;48.906;8.808;2023-02-22T15:58:48;14.98;;;8.90;;
38725;SDS011;24474;48.906;8.808;2023-02-22T16:01:15;12.40;;;8.63;;
38725;SDS011;24474;48.906;8.808;2023-02-22T16:03:44;15.10;;;9.00;;
38725;SDS011;24474;48.906;8.808;2023-02-22T16:09:12;15.95;;;9.18;;
38725;SDS011;24474;48.906;8.808;2023-02-22T16:11:43;14.35;;;9.20;;
38725;SDS011;24474;48.906;8.808;2023-02-22T16:20:00;14.02;;;8.80;;
38725;SDS011;24474;48.906;8.808;2023-02-22T16:22:52;11.57;;;8.77;;
38725;SDS011;24474;48.906;8.808;2023-02-22T16:25:31;13.37;;;8.93;;
38725;SDS011;24474;48.906;8.808;2023-02-22T16:28:01;13.73;;;9.10;;
38725;SDS011;24474;48.906;8.808;2023-02-22T16:30:55;12.43;;;7.85;;
38725;SDS011;24474;48.906;8.808;2023-02-22T16:33:23;12.15;;;8.02;;
38725;SDS011;24474;48.906;8.808;2023-02-22T16:35:55;13.50;;;8.75;;
38725;SDS011;24474;48.906;8.808;2023-02-22T16:38:23;14.85;;;9.15;;
38725;SDS011;24474;48.906;8.808;2023-02-22T16:40:55;16.85;;;10.20;;
38725;SDS011;24474;48.906;8.808;2023-02-22T16:45:59;14.90;;;9.65;;
38725;SDS011;24474;48.906;8.808;2023-02-22T16:48:26;13.63;;;9.05;;
38725;SDS011;24474;48.906;8.808;2023-02-22T16:53:53;13.93;;;8.55;;
38725;SDS011;24474;48.906;8.808;2023-02-22T16:56:31;17.60;;;9.80;;
38725;SDS011;24474;48.906;8.808;2023-02-22T16:59:00;14.85;;;9.75;;
38725;SDS011;24474;48.906;8.808;2023-02-22T17:01:30;22.80;;;16.48;;
38725;SDS011;24474;48.906;8.808;2023-02-22T17:04:00;19.98;;;14.93;;
38725;SDS011;24474;48.906;8.808;2023-02-22T17:06:27;18.67;;;15.00;;
38725;SDS011;24474;48.906;8.808;2023-02-22T17:08:54;22.50;;;13.20;;
38725;SDS011;24474;48.906;8.808;2023-02-22T17:11:21;17.63;;;11.57;;
38725;SDS011;24474;48.906;8.808;2023-02-22T17:13:48;16.85;;;10.45;;
38725;SDS011;24474;48.906;8.808;2023-02-22T17:16:17;14.25;;;9.25;;
38725;SDS011;24474;48.906;8.808;2023-02-22T17:18:42;15.25;;;9.93;;
38725;SDS011;24474;48.906;8.808;2023-02-22T17:21:11;15.75;;;9.68;;
38725;SDS011;24474;48.906;8.808;2023-02-22T17:23:38;16.30;;;9.77;;
38725;SDS011;24474;48.906;8.808;2023-02-22T17:26:05;13.45;;;8.98;;
38725;SDS011;24474;48.906;8.808;2023-02-22T17:28:31;11.93;;;8.20;;
38725;SDS011;24474;48.906;8.808;2023-02-22T17:30:58;13.77;;;8.63;;
38725;SDS011;24474;48.906;8.808;2023-02-22T17:33:26;12.30;;;8.10;;
38725;SDS011;24474;48.906;8.808;2023-02-22T17:35:55;14.80;;;8.25;;
38725;SDS011;24474;48.906;8.808;2023-02-22T17:38:23;12.40;;;8.23;;
38725;SDS011;24474;48.906;8.808;2023-02-22T17:40:52;13.70;;;8.68;;
38725;SDS011;24474;48.906;8.808;2023-02-22T17:43:23;15.57;;;8.40;;
38725;SDS011;24474;48.906;8.808;2023-02-22T17:45:50;15.23;;;9.02;;
38725;SDS011;24474;48.906;8.808;2023-02-22T17:48:16;12.63;;;9.40;;
38725;SDS011;24474;48.906;8.808;2023-02-22T17:50:44;14.95;;;8.80;;
38725;SDS011;24474;48.906;8.808;2023-02-22T17:53:15;15.60;;;9.45;;
38725;SDS011;24474;48.906;8.808;2023-02-22T17:55:47;17.25;;;11.35;;
38725;SDS011;24474;48.906;8.808;2023-02-22T17:58:13;21.73;;;13.40;;
38725;SDS011;24474;48.906;8.808;2023-02-22T18:00:47;25.48;;;14.98;;
38725;SDS011;24474;48.906;8.808;2023-02-22T18:03:15;21.70;;;13.43;;
38725;SDS011;24474;48.906;8.808;2023-02-22T18:05:51;23.95;;;15.45;;
38725;SDS011;24474;48.906;8.808;2023-02-22T18:08:20;25.35;;;17.08;;